createdAt,value
2023-06-25T00:01:08.070Z,19.03
2023-06-25T00:03:34.842Z,19.02
2023-06-25T00:06:01.572Z,19.00
2023-06-25T00:08:28.294Z,18.96
2023-06-25T00:10:55.011Z,18.94
2023-06-25T00:13:21.713Z,18.93
2023-06-25T00:15:49.949Z,18.92
2023-06-25T00:18:16.601Z,18.90
2023-06-25T00:20:43.598Z,18.89
2023-06-25T00:23:10.360Z,18.88
2023-06-25T00:25:37.136Z,18.87
2023-06-25T00:28:04.223Z,18.87
2023-06-25T00:30:31.132Z,18.87
2023-06-25T00:32:59.325Z,18.86
2023-06-25T00:35:28.712Z,18.85
2023-06-25T00:37:55.766Z,18.85
2023-06-25T00:40:22.474Z,18.86
2023-06-25T00:42:49.059Z,18.87
2023-06-25T00:45:15.708Z,18.86
2023-06-25T00:47:43.322Z,18.88
2023-06-25T00:50:12.178Z,18.88
2023-06-25T00:52:39.350Z,18.89
2023-06-25T00:55:06.775Z,18.91
2023-06-25T00:57:33.460Z,18.90
2023-06-25T01:00:00.208Z,18.89
2023-06-25T01:02:33.331Z,18.89
2023-06-25T01:05:07.440Z,18.88
2023-06-25T01:07:37.648Z,18.85
2023-06-25T01:10:05.487Z,18.85
2023-06-25T01:12:32.187Z,18.85
2023-06-25T01:14:59.098Z,18.85
2023-06-25T01:17:25.911Z,18.85
2023-06-25T01:19:52.696Z,18.85
2023-06-25T01:22:24.998Z,18.86
2023-06-25T01:24:51.765Z,18.85
2023-06-25T01:27:18.482Z,18.86
2023-06-25T01:29:45.287Z,18.86
2023-06-25T01:32:12.158Z,18.86
2023-06-25T01:34:38.946Z,18.87
2023-06-25T01:37:05.899Z,18.87
2023-06-25T01:39:33.962Z,18.87
2023-06-25T01:42:00.733Z,18.88
2023-06-25T01:44:28.431Z,18.87
2023-06-25T01:46:55.835Z,18.88
2023-06-25T01:49:31.656Z,18.88
2023-06-25T01:51:59.441Z,18.90
2023-06-25T01:54:26.092Z,18.90
2023-06-25T01:56:54.220Z,18.90
2023-06-25T01:59:20.858Z,18.91
2023-06-25T02:01:47.525Z,18.93
2023-06-25T02:04:14.295Z,18.95
2023-06-25T02:06:41.139Z,18.96
2023-06-25T02:09:07.823Z,18.97
2023-06-25T02:11:34.456Z,18.97
2023-06-25T02:14:02.615Z,18.98
2023-06-25T02:16:29.332Z,18.99
2023-06-25T02:18:56.035Z,19.00
2023-06-25T02:21:22.654Z,19.01
2023-06-25T02:23:49.352Z,19.01
2023-06-25T02:26:16.014Z,19.03
2023-06-25T02:28:42.798Z,19.05
2023-06-25T02:31:10.984Z,19.06
2023-06-25T02:33:37.716Z,19.07
2023-06-25T02:36:04.828Z,19.07
2023-06-25T02:38:31.519Z,19.08
2023-06-25T02:40:58.191Z,19.08
2023-06-25T02:43:24.904Z,19.10
2023-06-25T02:45:51.609Z,19.11
2023-06-25T02:48:20.019Z,19.12
2023-06-25T02:50:46.816Z,19.13
2023-06-25T02:53:13.598Z,19.13
2023-06-25T02:55:40.331Z,19.14
2023-06-25T02:58:07.037Z,19.14
2023-06-25T03:00:33.801Z,19.16
2023-06-25T03:03:00.555Z,19.17
2023-06-25T03:05:29.809Z,19.18
2023-06-25T03:07:57.939Z,19.17
2023-06-25T03:10:25.819Z,19.19
2023-06-25T03:12:52.576Z,19.20
2023-06-25T03:15:19.244Z,19.21
2023-06-25T03:17:46.491Z,19.21
2023-06-25T03:20:13.729Z,19.21
2023-06-25T03:22:41.967Z,19.23
2023-06-25T03:25:10.029Z,19.24
2023-06-25T03:27:37.137Z,19.28
2023-06-25T03:30:04.918Z,19.29
2023-06-25T03:32:31.869Z,19.30
2023-06-25T03:34:58.570Z,19.31
2023-06-25T03:37:25.253Z,19.32
2023-06-25T03:39:53.423Z,19.34
2023-06-25T03:42:20.161Z,19.35
2023-06-25T03:44:47.986Z,19.38
2023-06-25T03:47:14.719Z,19.39
2023-06-25T03:49:41.429Z,19.42
2023-06-25T03:52:08.444Z,19.44
2023-06-25T03:54:35.189Z,19.46
2023-06-25T03:57:03.481Z,19.48
2023-06-25T03:59:30.344Z,19.51
2023-06-25T04:01:57.161Z,19.53
2023-06-25T04:04:24.051Z,19.56
2023-06-25T04:06:50.817Z,19.59
2023-06-25T04:09:17.534Z,19.62
2023-06-25T04:11:44.453Z,19.64
2023-06-25T04:14:12.650Z,19.66
2023-06-25T04:16:39.363Z,19.70
2023-06-25T04:19:06.036Z,19.72
2023-06-25T04:21:32.948Z,19.73
2023-06-25T04:24:01.017Z,19.77
2023-06-25T04:26:27.799Z,19.80
2023-06-25T04:28:54.467Z,19.82
2023-06-25T04:31:22.504Z,19.85
2023-06-25T04:33:49.270Z,19.90
2023-06-25T04:36:16.063Z,19.94
2023-06-25T04:38:42.683Z,19.98
2023-06-25T04:41:09.364Z,20.04
2023-06-25T04:43:36.111Z,20.08
2023-06-25T04:46:02.946Z,20.12
2023-06-25T04:48:30.964Z,20.16
2023-06-25T04:50:57.631Z,20.19
2023-06-25T04:53:24.325Z,20.24
2023-06-25T04:55:50.989Z,20.29
2023-06-25T04:58:17.784Z,20.34
2023-06-25T05:00:44.496Z,20.38
2023-06-25T05:03:11.240Z,20.44
2023-06-25T05:05:39.398Z,20.49
2023-06-25T05:08:06.276Z,20.51
2023-06-25T05:10:32.932Z,20.57
2023-06-25T05:12:59.650Z,20.61
2023-06-25T05:15:26.414Z,20.66
2023-06-25T05:17:53.060Z,20.67
2023-06-25T05:20:19.820Z,20.71
2023-06-25T05:22:48.103Z,20.76
2023-06-25T05:25:15.105Z,20.82
2023-06-25T05:27:41.782Z,20.86
2023-06-25T05:30:09.494Z,20.91
2023-06-25T05:32:36.258Z,20.97
2023-06-25T05:35:03.221Z,21.04
2023-06-25T05:37:29.936Z,21.10
2023-06-25T05:39:58.561Z,21.13
2023-06-25T05:42:25.256Z,21.17
2023-06-25T05:44:51.903Z,21.22
2023-06-25T05:47:18.765Z,21.26
2023-06-25T05:49:45.652Z,21.32
2023-06-25T05:52:12.444Z,21.38
2023-06-25T05:54:39.318Z,21.45
2023-06-25T05:57:07.789Z,21.50
2023-06-25T05:59:34.549Z,21.57
2023-06-25T06:02:01.218Z,21.64
2023-06-25T06:04:27.937Z,21.73
2023-06-25T06:06:54.638Z,21.81
2023-06-25T06:09:21.384Z,21.90
2023-06-25T06:11:48.129Z,21.96
2023-06-25T06:14:16.274Z,22.02
2023-06-25T06:16:42.936Z,22.09
2023-06-25T06:19:09.707Z,22.15
2023-06-25T06:21:36.413Z,22.22
2023-06-25T06:24:03.259Z,22.30
2023-06-25T06:26:29.938Z,22.39
2023-06-25T06:28:56.681Z,22.47
2023-06-25T06:31:24.912Z,22.55
2023-06-25T06:33:51.673Z,22.65
2023-06-25T06:36:18.441Z,22.73
2023-06-25T06:38:45.273Z,22.81
2023-06-25T06:41:11.989Z,22.91
2023-06-25T06:43:38.779Z,22.99
2023-06-25T06:46:08.427Z,23.09
2023-06-25T06:48:36.824Z,23.18
2023-06-25T06:51:03.606Z,23.25
2023-06-25T06:53:30.288Z,23.31
2023-06-25T06:55:56.978Z,23.40
2023-06-25T06:58:23.731Z,23.49
2023-06-25T07:00:50.403Z,23.58
2023-06-25T07:03:17.188Z,23.69
2023-06-25T07:05:45.448Z,23.76
2023-06-25T07:08:12.217Z,23.85
2023-06-25T07:10:38.900Z,23.94
2023-06-25T07:13:05.603Z,24.00
2023-06-25T07:15:32.302Z,24.07
2023-06-25T07:17:58.997Z,24.17
2023-06-25T07:20:25.728Z,24.26
2023-06-25T07:22:53.808Z,24.36
2023-06-25T07:25:20.558Z,24.47
2023-06-25T07:27:47.395Z,24.56
2023-06-25T07:30:14.365Z,24.66
2023-06-25T07:32:40.985Z,24.74
2023-06-25T07:35:08.823Z,24.83
2023-06-25T07:37:38.300Z,24.92
2023-06-25T07:40:08.706Z,25.01
2023-06-25T07:42:35.401Z,25.09
2023-06-25T07:45:02.051Z,25.15
2023-06-25T07:47:28.739Z,25.21
2023-06-25T07:49:55.484Z,25.29
2023-06-25T07:52:22.122Z,25.36
2023-06-25T07:54:49.003Z,25.42
2023-06-25T07:57:17.100Z,25.52
2023-06-25T07:59:54.085Z,25.62
2023-06-25T08:02:21.266Z,25.76
2023-06-25T08:04:48.547Z,25.88
2023-06-25T08:07:15.384Z,25.97
2023-06-25T08:09:42.336Z,26.01
2023-06-25T08:12:09.522Z,26.02
2023-06-25T08:14:37.636Z,26.15
2023-06-25T08:17:04.843Z,26.29
2023-06-25T08:19:31.501Z,26.39
2023-06-25T08:21:58.189Z,26.42
2023-06-25T08:24:25.006Z,26.54
2023-06-25T08:26:51.721Z,26.72
2023-06-25T08:29:18.373Z,26.85
2023-06-25T08:31:46.402Z,27.00
2023-06-25T08:34:13.163Z,27.15
2023-06-25T08:36:39.964Z,27.24
2023-06-25T08:39:06.662Z,27.34
2023-06-25T08:41:33.370Z,27.46
2023-06-25T08:44:00.077Z,27.53
2023-06-25T08:46:27.925Z,27.63
2023-06-25T08:48:56.333Z,27.72
2023-06-25T08:51:24.445Z,27.76
2023-06-25T08:53:51.504Z,27.83
2023-06-25T08:56:19.112Z,27.91
2023-06-25T08:58:45.972Z,27.98
2023-06-25T09:01:12.822Z,28.04
2023-06-25T09:03:39.766Z,28.06
2023-06-25T09:06:12.919Z,28.06
2023-06-25T09:08:40.067Z,28.07
2023-06-25T09:11:07.249Z,28.20
2023-06-25T09:13:33.988Z,28.34
2023-06-25T09:16:02.698Z,28.50
2023-06-25T09:18:29.587Z,28.59
2023-06-25T09:20:56.444Z,28.63
2023-06-25T09:23:25.016Z,28.70
2023-06-25T09:25:52.476Z,28.79
2023-06-25T09:28:19.884Z,28.86
2023-06-25T09:30:46.961Z,28.93
2023-06-25T09:33:14.570Z,28.95
2023-06-25T09:35:41.298Z,29.02
2023-06-25T09:38:08.344Z,29.13
2023-06-25T09:40:36.732Z,29.20
2023-06-25T09:43:05.025Z,29.23
2023-06-25T09:45:32.027Z,29.26
2023-06-25T09:47:58.751Z,29.32
2023-06-25T09:50:28.854Z,29.31
2023-06-25T09:52:56.999Z,29.35
2023-06-25T09:55:25.527Z,29.43
2023-06-25T09:57:54.922Z,29.50
2023-06-25T10:00:23.193Z,29.57
2023-06-25T10:02:50.953Z,29.59
2023-06-25T10:05:17.793Z,29.51
2023-06-25T10:07:45.687Z,29.40
2023-06-25T10:10:20.511Z,29.31
2023-06-25T10:12:48.425Z,29.28
2023-06-25T10:15:16.682Z,29.27
2023-06-25T10:17:48.039Z,29.24
2023-06-25T10:20:26.854Z,29.23
2023-06-25T10:23:08.454Z,29.27
2023-06-25T10:25:36.284Z,29.35
2023-06-25T10:28:08.749Z,29.39
2023-06-25T10:30:41.663Z,29.47
2023-06-25T10:33:08.470Z,29.52
2023-06-25T10:35:42.338Z,29.59
2023-06-25T10:38:09.102Z,29.65
2023-06-25T10:40:36.960Z,29.70
2023-06-25T10:43:04.259Z,29.72
2023-06-25T10:45:31.346Z,29.78
2023-06-25T10:48:08.121Z,29.80
2023-06-25T10:50:36.132Z,29.79
2023-06-25T10:53:04.869Z,29.74
2023-06-25T10:55:31.574Z,29.64
2023-06-25T10:57:58.355Z,29.72
2023-06-25T11:00:26.422Z,29.73
2023-06-25T11:02:53.765Z,29.66
2023-06-25T11:05:31.916Z,29.67
2023-06-25T11:07:58.625Z,29.72
2023-06-25T11:10:25.417Z,29.70
2023-06-25T11:12:52.236Z,29.67
2023-06-25T11:15:19.841Z,29.71
2023-06-25T11:17:50.546Z,29.91
2023-06-25T11:20:17.528Z,30.15
2023-06-25T11:22:45.818Z,30.16
2023-06-25T11:25:13.190Z,30.07
2023-06-25T11:27:40.003Z,29.96
2023-06-25T11:30:08.556Z,29.88
2023-06-25T11:32:38.698Z,29.76
2023-06-25T11:35:12.847Z,29.70
2023-06-25T11:37:45.683Z,29.65
2023-06-25T11:40:25.434Z,29.67
2023-06-25T11:42:53.710Z,29.71
2023-06-25T11:45:21.018Z,29.69
2023-06-25T11:47:49.220Z,29.61
2023-06-25T11:50:16.124Z,29.56
2023-06-25T11:52:42.883Z,29.50
2023-06-25T11:55:11.221Z,29.47
2023-06-25T11:57:38.304Z,29.51
2023-06-25T12:00:06.478Z,29.52
2023-06-25T12:02:48.307Z,29.49
2023-06-25T12:05:16.118Z,29.60
2023-06-25T12:07:42.786Z,29.73
2023-06-25T12:10:11.358Z,29.84
2023-06-25T12:12:38.130Z,29.94
2023-06-25T12:15:05.666Z,30.02
2023-06-25T12:17:32.396Z,30.13
2023-06-25T12:19:59.034Z,30.29
2023-06-25T12:22:25.840Z,30.36
2023-06-25T12:24:52.538Z,30.38
2023-06-25T12:27:20.637Z,30.41
2023-06-25T12:29:47.300Z,30.42
2023-06-25T12:32:14.029Z,30.45
2023-06-25T12:34:40.715Z,30.52
2023-06-25T12:37:07.611Z,30.56
2023-06-25T12:39:34.330Z,30.64
2023-06-25T12:42:01.077Z,30.72
2023-06-25T12:44:29.245Z,30.67
2023-06-25T12:46:56.118Z,30.60
2023-06-25T12:49:22.823Z,30.62
2023-06-25T12:51:52.112Z,30.61
2023-06-25T12:54:19.220Z,30.52
2023-06-25T12:56:46.030Z,30.49
2023-06-25T12:59:12.866Z,30.54
2023-06-25T13:01:41.654Z,30.63
2023-06-25T13:04:08.448Z,30.73
2023-06-25T13:06:35.186Z,30.74
2023-06-25T13:09:01.920Z,30.66
2023-06-25T13:11:28.672Z,30.51
2023-06-25T13:13:55.445Z,30.47
2023-06-25T13:16:22.126Z,30.51
2023-06-25T13:18:50.164Z,30.62
2023-06-25T13:21:16.994Z,30.75
2023-06-25T13:23:43.802Z,30.92
2023-06-25T13:26:10.533Z,31.02
2023-06-25T13:28:37.201Z,31.09
2023-06-25T13:31:04.775Z,31.18
2023-06-25T13:33:31.811Z,31.31
2023-06-25T13:35:59.882Z,31.33
2023-06-25T13:38:26.611Z,31.26
2023-06-25T13:40:53.351Z,31.28
2023-06-25T13:43:20.021Z,31.33
2023-06-25T13:45:46.934Z,31.39
2023-06-25T13:48:13.983Z,31.39
2023-06-25T13:50:40.780Z,31.38
2023-06-25T13:53:08.871Z,31.45
2023-06-25T13:55:35.900Z,31.47
2023-06-25T13:58:02.770Z,31.43
2023-06-25T14:00:29.521Z,31.37
2023-06-25T14:03:11.273Z,31.34
2023-06-25T14:05:40.088Z,31.36
2023-06-25T14:08:08.543Z,31.32
2023-06-25T14:10:35.374Z,31.30
2023-06-25T14:13:02.107Z,31.17
2023-06-25T14:15:29.473Z,31.14
2023-06-25T14:17:56.433Z,31.17
2023-06-25T14:20:23.264Z,31.22
2023-06-25T14:22:50.225Z,31.19
2023-06-25T14:25:18.438Z,31.13
2023-06-25T14:27:45.131Z,31.12
2023-06-25T14:30:12.449Z,31.04
2023-06-25T14:32:39.113Z,31.05
2023-06-25T14:35:06.496Z,31.09
2023-06-25T14:37:33.279Z,31.08
2023-06-25T14:39:59.969Z,31.13
2023-06-25T14:42:28.192Z,31.11
2023-06-25T14:44:54.929Z,31.01
2023-06-25T14:47:23.080Z,30.86
2023-06-25T14:49:49.792Z,30.81
2023-06-25T14:52:16.639Z,30.72
2023-06-25T14:54:43.406Z,30.64
2023-06-25T14:57:10.119Z,30.64
2023-06-25T14:59:38.140Z,30.65
2023-06-25T15:02:04.957Z,30.73
2023-06-25T15:04:31.901Z,30.83
2023-06-25T15:06:58.770Z,30.98
2023-06-25T15:09:25.674Z,31.05
2023-06-25T15:11:52.396Z,31.03
2023-06-25T15:14:19.075Z,30.97
2023-06-25T15:16:47.602Z,30.83
2023-06-25T15:19:14.536Z,30.81
2023-06-25T15:21:41.346Z,30.82
2023-06-25T15:24:08.334Z,30.83
2023-06-25T15:26:35.096Z,30.79
2023-06-25T15:29:01.801Z,30.70
2023-06-25T15:31:28.499Z,30.64
2023-06-25T15:33:56.681Z,30.53
2023-06-25T15:36:23.353Z,30.43
2023-06-25T15:38:50.031Z,30.41
2023-06-25T15:41:16.723Z,30.44
2023-06-25T15:43:43.352Z,30.33
2023-06-25T15:46:10.068Z,30.23
2023-06-25T15:48:36.804Z,30.21
2023-06-25T15:51:04.998Z,30.26
2023-06-25T15:53:31.672Z,30.35
2023-06-25T15:56:00.277Z,30.44
2023-06-25T15:58:27.040Z,30.51
2023-06-25T16:00:53.990Z,30.57
2023-06-25T16:03:20.856Z,30.62
2023-06-25T16:05:47.600Z,30.68
2023-06-25T16:08:15.899Z,30.72
2023-06-25T16:10:42.674Z,30.75
2023-06-25T16:13:09.466Z,30.68
2023-06-25T16:15:36.300Z,30.63
2023-06-25T16:18:03.493Z,30.64
2023-06-25T16:20:30.255Z,30.65
2023-06-25T16:22:57.187Z,30.59
2023-06-25T16:25:25.240Z,30.59
2023-06-25T16:27:51.934Z,30.67
2023-06-25T16:30:18.841Z,30.77
2023-06-25T16:32:45.579Z,30.86
2023-06-25T16:35:12.260Z,30.92
2023-06-25T16:37:39.152Z,30.88
2023-06-25T16:40:06.504Z,30.89
2023-06-25T16:42:34.666Z,30.90
2023-06-25T16:45:03.138Z,30.90
2023-06-25T16:47:30.039Z,30.93
2023-06-25T16:49:56.776Z,30.99
2023-06-25T16:52:23.586Z,31.03
2023-06-25T16:54:50.329Z,31.08
2023-06-25T16:57:17.178Z,31.15
2023-06-25T16:59:45.338Z,31.20
2023-06-25T17:02:12.782Z,31.22
2023-06-25T17:04:39.790Z,31.19
2023-06-25T17:07:07.959Z,31.15
2023-06-25T17:09:35.196Z,31.05
2023-06-25T17:12:02.168Z,31.01
2023-06-25T17:20:11.796Z,30.83
2023-06-25T17:22:38.346Z,30.75
2023-06-25T17:25:05.081Z,30.67
2023-06-25T17:27:31.784Z,30.63
2023-06-25T17:29:58.446Z,30.56
2023-06-25T17:32:25.108Z,30.50
2023-06-25T17:34:51.785Z,30.46
2023-06-25T17:37:19.830Z,30.45
2023-06-25T17:39:46.483Z,30.42
2023-06-25T17:42:13.354Z,30.36
2023-06-25T17:44:39.940Z,30.24
2023-06-25T17:47:06.852Z,30.16
2023-06-25T17:49:33.564Z,30.01
2023-06-25T17:52:00.153Z,29.88
2023-06-25T17:54:28.161Z,29.77
2023-06-25T17:56:54.815Z,29.68
2023-06-25T17:59:21.459Z,29.62
2023-06-25T18:01:48.168Z,29.58
2023-06-25T18:04:14.983Z,29.53
2023-06-25T18:06:41.841Z,29.50
2023-06-25T18:09:08.769Z,29.45
2023-06-25T18:11:36.911Z,29.41
2023-06-25T18:14:03.684Z,29.37
2023-06-25T18:16:30.368Z,29.32
2023-06-25T18:18:57.057Z,29.26
2023-06-25T18:21:23.774Z,29.20
2023-06-25T18:23:50.510Z,29.13
2023-06-25T18:26:17.123Z,29.07
2023-06-25T18:28:45.224Z,29.03
2023-06-25T18:31:12.235Z,28.94
2023-06-25T18:33:39.061Z,28.89
2023-06-25T18:36:06.291Z,28.82
2023-06-25T18:38:32.923Z,28.78
2023-06-25T18:40:59.738Z,28.70
2023-06-25T18:43:27.798Z,28.62
2023-06-25T18:45:55.936Z,28.54
2023-06-25T18:48:22.752Z,28.45
2023-06-25T18:50:49.429Z,28.35
2023-06-25T18:53:16.157Z,28.24
2023-06-25T18:55:43.225Z,28.13
2023-06-25T18:58:10.091Z,28.03
2023-06-25T19:00:37.195Z,27.94
2023-06-25T19:03:05.427Z,27.84
2023-06-25T19:05:32.230Z,27.75
2023-06-25T19:07:58.786Z,27.64
2023-06-25T19:10:25.431Z,27.54
2023-06-25T19:12:52.065Z,27.45
2023-06-25T19:15:18.814Z,27.34
2023-06-25T19:17:45.415Z,27.25
2023-06-25T19:20:13.786Z,27.15
2023-06-25T19:22:51.455Z,27.05
2023-06-25T19:25:23.612Z,26.93
2023-06-25T19:27:50.234Z,26.83
2023-06-25T19:30:16.997Z,26.74
2023-06-25T19:32:43.701Z,26.64
2023-06-25T19:35:10.480Z,26.56
2023-06-25T19:37:38.472Z,26.43
2023-06-25T19:40:05.903Z,26.34
2023-06-25T19:42:33.119Z,26.25
2023-06-25T19:45:00.428Z,26.16
2023-06-25T19:47:27.171Z,26.06
2023-06-25T19:49:53.938Z,25.97
2023-06-25T19:52:20.653Z,25.87
2023-06-25T19:54:48.645Z,25.78
2023-06-25T19:57:15.387Z,25.68
2023-06-25T19:59:42.007Z,25.60
2023-06-25T20:02:08.708Z,25.53
2023-06-25T20:04:35.579Z,25.43
2023-06-25T20:07:02.377Z,25.35
2023-06-25T20:09:29.064Z,25.29
2023-06-25T20:11:57.084Z,25.23
2023-06-25T20:14:24.299Z,25.13
2023-06-25T20:16:51.264Z,25.05
2023-06-25T20:19:17.912Z,24.98
2023-06-25T20:21:44.654Z,24.90
2023-06-25T20:24:11.257Z,24.83
2023-06-25T20:26:37.858Z,24.75
2023-06-25T20:29:05.736Z,24.68
2023-06-25T20:31:32.392Z,24.61
2023-06-25T20:33:59.013Z,24.54
2023-06-25T20:36:25.550Z,24.49
2023-06-25T20:38:52.344Z,24.42
2023-06-25T20:41:32.382Z,24.36
2023-06-25T20:43:59.808Z,24.29
2023-06-25T20:46:27.788Z,24.25
2023-06-25T20:48:54.374Z,24.20
2023-06-25T20:51:20.965Z,24.16
2023-06-25T20:53:47.547Z,24.10
2023-06-25T20:56:14.105Z,24.06
2023-06-25T20:58:40.715Z,24.01
2023-06-25T21:01:07.361Z,23.95
2023-06-25T21:03:35.415Z,23.89
2023-06-25T21:06:02.312Z,23.83
2023-06-25T21:08:29.030Z,23.80
2023-06-25T21:10:55.707Z,23.74
2023-06-25T21:13:22.426Z,23.70
2023-06-25T21:15:49.009Z,23.64
2023-06-25T21:18:15.878Z,23.59
2023-06-25T21:20:43.892Z,23.54
2023-06-25T21:23:10.518Z,23.49
2023-06-25T21:25:37.073Z,23.42
2023-06-25T21:28:04.119Z,23.37
2023-06-25T21:30:30.653Z,23.33
2023-06-25T21:32:57.358Z,23.27
2023-06-25T21:35:23.953Z,23.24
2023-06-25T21:37:51.974Z,23.19
2023-06-25T21:40:18.695Z,23.13
2023-06-25T21:42:45.267Z,23.08
2023-06-25T21:45:11.904Z,23.03
2023-06-25T21:47:38.500Z,22.99
2023-06-25T21:50:05.886Z,22.94
2023-06-25T21:52:32.574Z,22.89
2023-06-25T21:55:00.729Z,22.85
2023-06-25T21:57:27.295Z,22.80
2023-06-25T21:59:53.900Z,22.76
2023-06-25T22:02:21.169Z,22.72
2023-06-25T22:04:47.896Z,22.69
2023-06-25T22:07:15.100Z,22.64
2023-06-25T22:09:41.778Z,22.61
2023-06-25T22:12:09.948Z,22.56
2023-06-25T22:14:36.522Z,22.53
2023-06-25T22:17:03.547Z,22.50
2023-06-25T22:19:30.286Z,22.46
2023-06-25T22:21:56.934Z,22.43
2023-06-25T22:24:23.512Z,22.39
2023-06-25T22:26:50.130Z,22.36
2023-06-25T22:29:19.810Z,22.32
2023-06-25T22:31:50.153Z,22.27
2023-06-25T22:34:16.909Z,22.21
2023-06-25T22:36:43.501Z,22.16
2023-06-25T22:39:10.136Z,22.12
2023-06-25T22:41:36.745Z,22.09
2023-06-25T22:44:03.466Z,22.07
2023-06-25T22:46:31.498Z,22.05
2023-06-25T22:48:58.283Z,22.02
2023-06-25T22:51:24.878Z,21.98
2023-06-25T22:53:51.407Z,21.95
2023-06-25T22:56:17.995Z,21.94
2023-06-25T22:58:44.621Z,21.90
2023-06-25T23:01:11.376Z,21.89
2023-06-25T23:03:39.487Z,21.85
2023-06-25T23:06:06.423Z,21.82
2023-06-25T23:08:34.338Z,21.80
2023-06-25T23:11:00.891Z,21.77
2023-06-25T23:13:27.540Z,21.74
2023-06-25T23:15:54.122Z,21.71
2023-06-25T23:18:20.716Z,21.64
2023-06-25T23:20:48.822Z,21.61
2023-06-25T23:23:15.424Z,21.58
2023-06-25T23:25:42.042Z,21.55
2023-06-25T23:28:09.509Z,21.53
2023-06-25T23:30:37.124Z,21.50
2023-06-25T23:33:04.077Z,21.48
2023-06-25T23:35:30.967Z,21.45
2023-06-25T23:37:59.196Z,21.41
2023-06-25T23:40:26.112Z,21.39
2023-06-25T23:42:52.671Z,21.36
2023-06-25T23:45:19.366Z,21.34
2023-06-25T23:47:46.187Z,21.32
2023-06-25T23:50:12.866Z,21.30
2023-06-25T23:52:39.592Z,21.27
2023-06-25T23:55:08.985Z,21.24
2023-06-25T23:57:35.592Z,21.22
